Time;durP1;ratioP1;P1;durP2;ratioP2;P2;SDS_P1;SDS_P2;PMS_P1;PMS_P2;Temp;Humidity;BMP_temperature;BMP_pressure;BME280_temperature;BME280_humidity;BME280_pressure;Samples;Min_cycle;Max_cycle;Signal;HPM_P1;HPM_P2
2023/01/19 00:00:21;;;;;;;;;;;;;;;;;;5048711;28;19921;-61
2023/01/19 00:02:46;;;;;;;;;;;;;;;;;;5070559;28;19912;-61
2023/01/19 00:05:12;;;;;;;;;;;;;;;;;;5066847;28;19912;-61
2023/01/19 00:07:37;;;;;;;;;;;;;;;;;;5064511;28;19925;-61
2023/01/19 00:10:02;;;;;;;;;;;;;;;;;;5071855;28;19913;-62
2023/01/19 00:12:27;;;;;;;;;;;;;;;;;;5072470;28;19915;-61
2023/01/19 00:14:52;;;;;;;;;;;;;;;;;;5071619;28;19913;-62
2023/01/19 00:17:17;;;;;;;;;;;;;;;;;;5071335;28;19966;-60
2023/01/19 00:19:42;;;;;;;;;;;;;;;;;;5073704;28;20368;-61
2023/01/19 00:22:07;;;;;;;;;;;;;;;;;;5072505;28;20361;-61
2023/01/19 00:24:33;;;;;;;;;;;;;;;;;;5073770;28;19921;-61
2023/01/19 00:26:58;;;;;;;;;;;;;;;;;;5064707;28;19921;-61
2023/01/19 00:29:23;;;;;;;;;;;;;;;;;;5072228;28;19936;-62
2023/01/19 00:31:48;;;;;;;;;;;;;;;;;;5072476;28;19919;-62
2023/01/19 00:34:13;;;;;;;;;;;;;;;;;;5064600;28;19955;-62
2023/01/19 00:36:38;;;;;;;;;;;;;;;;;;5068514;28;19924;-60
2023/01/19 00:39:03;;;;;;;;;;;;;;;;;;5060147;28;19916;-60
2023/01/19 00:44:12;;;;;;;;;;;;;;;;;;5074278;28;19919;-60
2023/01/19 00:46:38;;;;;;;;;;;;;;;;;;5065452;28;19917;-61
2023/01/19 00:49:03;;;;;;;;;;;;;;;;;;5064937;28;20356;-61
2023/01/19 00:51:28;;;;;;;;;;;;;;;;;;5070137;28;19919;-61
2023/01/19 00:53:53;;;;;;;;;;;;;;;;;;5052136;28;20071;-61
2023/01/19 00:56:18;;;;;;;;;;;;;;;;;;5072503;28;19916;-62
2023/01/19 00:58:44;;;;;;;;;;;;;;;;;;5073683;28;20011;-61
2023/01/19 01:01:09;;;;;;;;;;;;;;;;;;5052386;28;19913;-61
2023/01/19 01:03:34;;;;;;;;;;;;;;;;;;5073742;28;19926;-60
2023/01/19 01:05:59;;;;;;;;;;;;;;;;;;5072256;28;19939;-61
2023/01/19 01:08:24;;;;;;;;;;;;;;;;;;5073232;28;19986;-61
2023/01/19 01:10:49;;;;;;;;;;;;;;;;;;5070080;28;19919;-61
2023/01/19 01:13:14;;;;;;;;;;;;;;;;;;5075929;28;20303;-59
2023/01/19 01:15:40;;;;;;;;;;;;;;;;;;5070794;28;20385;-61
2023/01/19 01:18:05;;;;;;;;;;;;;;;;;;5071503;28;19913;-60
2023/01/19 01:20:32;;;;;;;;;;;;;;;;;;5063498;28;19913;-61
2023/01/19 01:22:57;;;;;;;;;;;;;;;;;;5071832;28;21326;-61
2023/01/19 01:25:22;;;;;;;;;;;;;;;;;;5056219;28;20362;-61
2023/01/19 01:27:47;;;;;;;;;;;;;;;;;;5069100;28;20404;-62
2023/01/19 01:30:13;;;;;;;;;;;;;;;;;;5053926;28;19916;-61
2023/01/19 01:32:38;;;;;;;;;;;;;;;;;;5051661;28;19908;-60
2023/01/19 01:35:03;;;;;;;;;;;;;;;;;;5068478;28;19913;-60
2023/01/19 01:37:28;;;;;;;;;;;;;;;;;;5070529;28;20014;-61
2023/01/19 01:39:53;;;;;;;;;;;;;;;;;;5062447;28;19925;-62
2023/01/19 01:42:18;;;;;;;;;;;;;;;;;;5071344;28;19913;-63
2023/01/19 01:44:48;;;;;;;;;;;;;;;;;;5072413;28;20323;-62
2023/01/19 01:47:13;;;;;;;;;;;;;;;;;;5065303;28;19920;-59
2023/01/19 01:49:38;;;;;;;;;;;;;;;;;;5061985;28;19917;-61
2023/01/19 01:52:03;;;;;;;;;;;;;;;;;;5070398;28;19920;-60
2023/01/19 01:54:29;;;;;;;;;;;;;;;;;;5070195;28;19916;-61
2023/01/19 01:56:54;;;;;;;;;;;;;;;;;;5069897;28;19966;-61
2023/01/19 01:59:24;;;;;;;;;;;;;;;;;;5072731;28;20284;-61
2023/01/19 02:04:33;;;;;;;;;;;;;;;;;;5070086;28;19922;-61
2023/01/19 02:15:13;;;;;;;;;;;;;;;;;;5074983;28;19920;-61
2023/01/19 02:17:39;;;;;;;;;;;;;;;;;;5050685;28;19920;-61
2023/01/19 02:20:04;;;;;;;;;;;;;;;;;;5066552;28;19918;-61
2023/01/19 02:22:29;;;;;;;;;;;;;;;;;;5068319;28;19997;-62
2023/01/19 02:24:54;;;;;;;;;;;;;;;;;;5073254;28;20086;-61
2023/01/19 02:27:19;;;;;;;;;;;;;;;;;;5068674;28;19966;-61
2023/01/19 02:29:44;;;;;;;;;;;;;;;;;;5075446;28;19962;-61
2023/01/19 02:32:09;;;;;;;;;;;;;;;;;;5059821;28;19912;-61
2023/01/19 02:34:34;;;;;;;;;;;;;;;;;;5065827;28;20210;-62
2023/01/19 02:37:02;;;;;;;;;;;;;;;;;;5051039;28;19916;-61
2023/01/19 02:39:27;;;;;;;;;;;;;;;;;;5069242;28;19939;-61
2023/01/19 02:41:52;;;;;;;;;;;;;;;;;;5069330;28;19913;-61
2023/01/19 02:44:17;;;;;;;;;;;;;;;;;;5067618;28;19919;-62
2023/01/19 02:46:42;;;;;;;;;;;;;;;;;;5073060;28;19985;-60
2023/01/19 02:49:07;;;;;;;;;;;;;;;;;;5062528;28;20007;-61
2023/01/19 02:51:32;;;;;;;;;;;;;;;;;;5067951;28;19963;-61
2023/01/19 02:53:58;;;;;;;;;;;;;;;;;;5067854;28;19935;-61
2023/01/19 02:56:23;;;;;;;;;;;;;;;;;;5071098;28;19919;-61
2023/01/19 02:58:49;;;;;;;;;;;;;;;;;;5069292;28;19919;-63
2023/01/19 03:01:14;;;;;;;;;;;;;;;;;;5070652;28;20255;-60
2023/01/19 03:03:39;;;;;;;;;;;;;;;;;;5069843;28;20525;-60
2023/01/19 03:06:04;;;;;;;;;;;;;;;;;;5072997;28;20387;-62
2023/01/19 03:08:29;;;;;;;;;;;;;;;;;;5068093;28;19954;-61
2023/01/19 03:10:55;;;;;;;;;;;;;;;;;;5067571;28;19913;-62
2023/01/19 03:13:20;;;;;;;;;;;;;;;;;;5060377;28;19912;-62
2023/01/19 03:15:46;;;;;;;;;;;;;;;;;;5068295;28;20296;-61
2023/01/19 03:18:11;;;;;;;;;;;;;;;;;;5070414;28;20351;-62
2023/01/19 03:20:36;;;;;;;;;;;;;;;;;;5052080;28;19912;-60
2023/01/19 03:23:02;;;;;;;;;;;;;;;;;;5076599;28;20350;-61
2023/01/19 03:25:27;;;;;;;;;;;;;;;;;;5068887;28;19924;-61
2023/01/19 03:27:52;;;;;;;;;;;;;;;;;;5062664;28;19912;-61
2023/01/19 03:30:17;;;;;;;;;;;;;;;;;;5070569;28;19919;-60
2023/01/19 03:32:42;;;;;;;;;;;;;;;;;;5074222;28;21356;-61
2023/01/19 03:35:07;;;;;;;;;;;;;;;;;;5068447;28;19920;-62
2023/01/19 03:37:33;;;;;;;;;;;;;;;;;;5069842;28;19919;-61
2023/01/19 03:39:58;;;;;;;;;;;;;;;;;;5069737;28;20340;-61
2023/01/19 03:42:23;;;;;;;;;;;;;;;;;;5062088;28;20436;-61
2023/01/19 03:44:50;;;;;;;;;;;;;;;;;;5067087;28;19920;-61
2023/01/19 03:47:15;;;;;;;;;;;;;;;;;;5062249;28;19917;-62
2023/01/19 03:49:40;;;;;;;;;;;;;;;;;;5070577;28;19912;-61
2023/01/19 03:52:05;;;;;;;;;;;;;;;;;;5068372;28;20320;-61
2023/01/19 03:54:30;;;;;;;;;;;;;;;;;;5054088;28;19908;-61
2023/01/19 03:56:55;;;;;;;;;;;;;;;;;;5062064;28;20259;-61
2023/01/19 03:59:20;;;;;;;;;;;;;;;;;;5074494;28;20372;-61
2023/01/19 04:01:46;;;;;;;;;;;;;;;;;;5073844;28;19989;-61
2023/01/19 04:04:12;;;;;;;;;;;;;;;;;;5078892;28;19916;-61
2023/01/19 04:06:37;;;;;;;;;;;;;;;;;;5071767;28;19932;-61
2023/01/19 04:09:02;;;;;;;;;;;;;;;;;;5075891;28;19912;-62
2023/01/19 04:11:27;;;;;;;;;;;;;;;;;;5072247;28;19979;-61
2023/01/19 04:13:52;;;;;;;;;;;;;;;;;;5071521;28;19986;-60
2023/01/19 04:16:19;;;;;;;;;;;;;;;;;;5067748;28;20364;-60
2023/01/19 04:18:45;;;;;;;;;;;;;;;;;;5054241;28;19913;-61
2023/01/19 04:21:10;;;;;;;;;;;;;;;;;;5071132;28;19913;-61
2023/01/19 04:23:35;;;;;;;;;;;;;;;;;;5073234;28;19975;-62
2023/01/19 04:26:00;;;;;;;;;;;;;;;;;;5074349;28;19959;-61
2023/01/19 04:28:25;;;;;;;;;;;;;;;;;;5072759;28;19938;-60
2023/01/19 04:30:53;;;;;;;;;;;;;;;;;;5075557;28;19920;-62
2023/01/19 04:33:18;;;;;;;;;;;;;;;;;;5073784;28;20273;-60
2023/01/19 04:35:44;;;;;;;;;;;;;;;;;;5065628;28;19916;-61
2023/01/19 04:38:09;;;;;;;;;;;;;;;;;;5069816;28;19963;-61
2023/01/19 04:40:34;;;;;;;;;;;;;;;;;;5073245;28;19931;-61
2023/01/19 04:42:59;;;;;;;;;;;;;;;;;;5076615;28;20409;-61
2023/01/19 04:45:24;;;;;;;;;;;;;;;;;;5070075;28;20419;-61
2023/01/19 04:47:50;;;;;;;;;;;;;;;;;;5054529;28;19923;-60
2023/01/19 04:50:16;;;;;;;;;;;;;;;;;;5070735;28;19917;-60
2023/01/19 04:52:41;;;;;;;;;;;;;;;;;;5073323;28;19995;-62
2023/01/19 04:55:06;;;;;;;;;;;;;;;;;;5071256;28;20637;-61
2023/01/19 04:57:31;;;;;;;;;;;;;;;;;;5072297;28;19916;-61
2023/01/19 04:59:57;;;;;;;;;;;;;;;;;;5063564;28;20288;-61
2023/01/19 05:02:22;;;;;;;;;;;;;;;;;;5072295;28;19963;-62
2023/01/19 05:04:47;;;;;;;;;;;;;;;;;;5073008;28;19912;-61
2023/01/19 05:07:12;;;;;;;;;;;;;;;;;;5071995;28;19923;-61
2023/01/19 05:09:37;;;;;;;;;;;;;;;;;;5072576;28;20007;-60
2023/01/19 05:12:02;;;;;;;;;;;;;;;;;;5073343;28;19936;-61
2023/01/19 05:14:28;;;;;;;;;;;;;;;;;;5072539;28;19913;-60
2023/01/19 05:16:53;;;;;;;;;;;;;;;;;;5072738;28;19920;-61
2023/01/19 05:19:18;;;;;;;;;;;;;;;;;;5059004;28;19912;-61
2023/01/19 05:21:43;;;;;;;;;;;;;;;;;;5050696;28;19958;-61
2023/01/19 05:24:08;;;;;;;;;;;;;;;;;;5060232;28;19913;-61
2023/01/19 05:26:34;;;;;;;;;;;;;;;;;;5072518;28;20339;-61
2023/01/19 05:28:59;;;;;;;;;;;;;;;;;;5066767;28;20050;-61
2023/01/19 05:31:24;;;;;;;;;;;;;;;;;;5070006;28;20007;-61
2023/01/19 05:33:49;;;;;;;;;;;;;;;;;;5068796;28;19912;-61
2023/01/19 05:36:14;;;;;;;;;;;;;;;;;;5070043;28;19920;-61
2023/01/19 05:38:39;;;;;;;;;;;;;;;;;;5070739;28;19921;-61
2023/01/19 05:41:04;;;;;;;;;;;;;;;;;;5070447;28;19916;-62
2023/01/19 05:43:29;;;;;;;;;;;;;;;;;;5061855;28;20428;-61
2023/01/19 05:45:55;;;;;;;;;;;;;;;;;;5070193;28;19973;-60
2023/01/19 05:48:20;;;;;;;;;;;;;;;;;;5067770;28;19916;-61
2023/01/19 05:50:47;;;;;;;;;;;;;;;;;;5069531;28;19912;-61
2023/01/19 05:53:12;;;;;;;;;;;;;;;;;;5056203;28;19935;-61
2023/01/19 05:55:38;;;;;;;;;;;;;;;;;;5067319;28;19912;-60
2023/01/19 05:58:03;;;;;;;;;;;;;;;;;;5071377;28;19912;-61
2023/01/19 06:00:28;;;;;;;;;;;;;;;;;;5057192;28;19936;-59
2023/01/19 06:02:53;;;;;;;;;;;;;;;;;;5054859;28;19913;-60
2023/01/19 06:05:18;;;;;;;;;;;;;;;;;;5069279;28;19924;-61
2023/01/19 06:07:43;;;;;;;;;;;;;;;;;;5062692;28;19912;-61
2023/01/19 06:10:08;;;;;;;;;;;;;;;;;;5070077;28;19916;-61
2023/01/19 06:12:34;;;;;;;;;;;;;;;;;;5070207;28;19912;-61
2023/01/19 06:14:59;;;;;;;;;;;;;;;;;;5062873;28;19913;-61
2023/01/19 06:17:24;;;;;;;;;;;;;;;;;;5069606;28;19913;-61
2023/01/19 06:19:49;;;;;;;;;;;;;;;;;;5070526;28;20411;-60
2023/01/19 06:22:14;;;;;;;;;;;;;;;;;;5063993;28;19913;-61
2023/01/19 06:24:39;;;;;;;;;;;;;;;;;;5068774;28;19920;-61
2023/01/19 06:27:05;;;;;;;;;;;;;;;;;;5056896;28;20017;-61
2023/01/19 06:29:30;;;;;;;;;;;;;;;;;;5048399;28;19935;-61
2023/01/19 06:31:55;;;;;;;;;;;;;;;;;;5054369;28;19923;-61
2023/01/19 06:34:21;;;;;;;;;;;;;;;;;;5054300;28;19947;-61
2023/01/19 06:36:46;;;;;;;;;;;;;;;;;;5072711;28;19919;-61
2023/01/19 06:39:11;;;;;;;;;;;;;;;;;;5078707;28;19970;-61
2023/01/19 06:41:37;;;;;;;;;;;;;;;;;;5073099;28;19965;-61
2023/01/19 06:44:02;;;;;;;;;;;;;;;;;;5072274;28;20320;-61
2023/01/19 06:46:27;;;;;;;;;;;;;;;;;;5068272;28;20384;-61
2023/01/19 06:48:52;;;;;;;;;;;;;;;;;;5071225;28;20403;-61
2023/01/19 06:51:18;;;;;;;;;;;;;;;;;;5069846;28;19942;-61
2023/01/19 06:53:43;;;;;;;;;;;;;;;;;;5070517;28;19912;-61
2023/01/19 06:56:08;;;;;;;;;;;;;;;;;;5067798;28;20346;-61
2023/01/19 06:58:33;;;;;;;;;;;;;;;;;;5068279;28;20006;-63
2023/01/19 07:00:58;;;;;;;;;;;;;;;;;;5079948;28;19957;-62
2023/01/19 07:03:24;;;;;;;;;;;;;;;;;;5069519;28;19933;-61
2023/01/19 07:05:49;;;;;;;;;;;;;;;;;;5069459;28;20372;-61
2023/01/19 07:08:14;;;;;;;;;;;;;;;;;;5068356;28;19917;-61
2023/01/19 07:10:39;;;;;;;;;;;;;;;;;;5065358;28;20399;-61
2023/01/19 07:13:05;;;;;;;;;;;;;;;;;;5069566;28;20011;-61
2023/01/19 07:15:30;;;;;;;;;;;;;;;;;;5071603;28;19912;-61
2023/01/19 07:17:55;;;;;;;;;;;;;;;;;;5070457;28;19995;-61
2023/01/19 07:20:20;;;;;;;;;;;;;;;;;;5072010;28;20350;-61
2023/01/19 07:22:45;;;;;;;;;;;;;;;;;;5072370;28;19916;-61
2023/01/19 07:25:10;;;;;;;;;;;;;;;;;;5071791;28;19912;-61
2023/01/19 07:27:35;;;;;;;;;;;;;;;;;;5070084;28;19916;-62
2023/01/19 07:30:01;;;;;;;;;;;;;;;;;;5072221;28;19930;-61
2023/01/19 07:32:26;;;;;;;;;;;;;;;;;;5072267;28;20363;-61
2023/01/19 07:34:51;;;;;;;;;;;;;;;;;;5071154;28;19919;-61
2023/01/19 07:37:16;;;;;;;;;;;;;;;;;;5069416;28;19909;-60
2023/01/19 07:39:41;;;;;;;;;;;;;;;;;;5064245;28;19927;-62
2023/01/19 07:42:07;;;;;;;;;;;;;;;;;;5071784;28;20340;-61
2023/01/19 07:44:32;;;;;;;;;;;;;;;;;;5072133;28;19917;-61
2023/01/19 07:46:57;;;;;;;;;;;;;;;;;;5056054;28;19916;-61
2023/01/19 07:49:22;;;;;;;;;;;;;;;;;;5071051;28;19982;-61
2023/01/19 07:51:47;;;;;;;;;;;;;;;;;;5071850;28;19908;-61
2023/01/19 07:54:12;;;;;;;;;;;;;;;;;;5072048;28;20007;-61
2023/01/19 07:56:37;;;;;;;;;;;;;;;;;;5070872;28;19912;-61
2023/01/19 07:59:03;;;;;;;;;;;;;;;;;;5070051;28;20364;-61
2023/01/19 08:01:28;;;;;;;;;;;;;;;;;;5071660;28;20421;-61
2023/01/19 08:03:53;;;;;;;;;;;;;;;;;;5072464;28;19992;-62
2023/01/19 08:06:18;;;;;;;;;;;;;;;;;;5063750;28;19960;-62
2023/01/19 08:08:44;;;;;;;;;;;;;;;;;;5069616;28;19912;-62
2023/01/19 08:11:09;;;;;;;;;;;;;;;;;;5051546;28;20269;-62
2023/01/19 08:13:34;;;;;;;;;;;;;;;;;;5071190;28;19908;-62
2023/01/19 08:15:59;;;;;;;;;;;;;;;;;;5070316;28;19912;-61
2023/01/19 08:18:24;;;;;;;;;;;;;;;;;;5068208;28;19938;-61
2023/01/19 08:20:49;;;;;;;;;;;;;;;;;;5069103;28;19908;-62
2023/01/19 08:23:16;;;;;;;;;;;;;;;;;;5065904;28;19917;-62
2023/01/19 08:25:43;;;;;;;;;;;;;;;;;;5086210;28;19912;-62
2023/01/19 08:28:08;;;;;;;;;;;;;;;;;;5069635;28;19956;-62
2023/01/19 08:30:33;;;;;;;;;;;;;;;;;;5069624;28;20016;-60
2023/01/19 08:33:06;;;;;;;;;;;;;;;;;;5071412;28;19908;-62
2023/01/19 08:35:32;;;;;;;;;;;;;;;;;;5064277;28;20392;-62
2023/01/19 08:38:00;;;;;;;;;;;;;;;;;;5068878;28;19912;-63
2023/01/19 08:40:25;;;;;;;;;;;;;;;;;;5074981;28;19932;-63
2023/01/19 08:42:50;;;;;;;;;;;;;;;;;;5087237;28;19958;-63
2023/01/19 08:45:15;;;;;;;;;;;;;;;;;;5095158;28;19912;-62
2023/01/19 08:47:40;;;;;;;;;;;;;;;;;;5084454;28;19912;-62
2023/01/19 08:50:06;;;;;;;;;;;;;;;;;;5074042;28;19995;-62
2023/01/19 08:52:31;;;;;;;;;;;;;;;;;;5074272;28;19912;-62
2023/01/19 08:54:56;;;;;;;;;;;;;;;;;;5073939;28;19909;-62
2023/01/19 08:57:21;;;;;;;;;;;;;;;;;;5082224;28;20002;-61
2023/01/19 08:59:46;;;;;;;;;;;;;;;;;;5082735;28;19988;-62
2023/01/19 09:02:11;;;;;;;;;;;;;;;;;;5073282;28;19966;-61
2023/01/19 09:04:36;;;;;;;;;;;;;;;;;;5073395;28;19920;-61
2023/01/19 09:07:02;;;;;;;;;;;;;;;;;;5072121;28;19916;-63
2023/01/19 09:09:27;;;;;;;;;;;;;;;;;;5077871;28;19920;-62
2023/01/19 09:11:52;;;;;;;;;;;;;;;;;;5072778;28;20257;-63
2023/01/19 09:14:17;;;;;;;;;;;;;;;;;;5073861;28;20246;-63
2023/01/19 09:16:42;;;;;;;;;;;;;;;;;;5063015;28;20353;-62
2023/01/19 09:19:08;;;;;;;;;;;;;;;;;;5073914;28;20396;-62
2023/01/19 09:21:33;;;;;;;;;;;;;;;;;;5074063;28;19912;-62
2023/01/19 09:23:58;;;;;;;;;;;;;;;;;;5073288;28;19908;-62
2023/01/19 09:26:23;;;;;;;;;;;;;;;;;;5072919;28;19925;-61
2023/01/19 09:28:49;;;;;;;;;;;;;;;;;;5074406;28;19913;-61
2023/01/19 09:31:15;;;;;;;;;;;;;;;;;;5078281;28;19908;-61
2023/01/19 09:33:40;;;;;;;;;;;;;;;;;;5075659;28;20373;-61
2023/01/19 09:36:05;;;;;;;;;;;;;;;;;;5063396;28;19909;-61
2023/01/19 09:38:31;;;;;;;;;;;;;;;;;;5070393;28;19920;-62
2023/01/19 09:40:57;;;;;;;;;;;;;;;;;;5072430;28;20384;-61
2023/01/19 09:43:23;;;;;;;;;;;;;;;;;;5072104;28;20289;-61
2023/01/19 09:45:48;;;;;;;;;;;;;;;;;;5071186;28;19920;-61
2023/01/19 09:48:13;;;;;;;;;;;;;;;;;;5053206;28;19916;-60
2023/01/19 09:50:38;;;;;;;;;;;;;;;;;;5053497;28;20399;-62
2023/01/19 09:53:04;;;;;;;;;;;;;;;;;;5053843;28;20043;-61
2023/01/19 09:55:29;;;;;;;;;;;;;;;;;;5070699;28;19919;-62
2023/01/19 09:57:54;;;;;;;;;;;;;;;;;;5072786;28;19984;-61
2023/01/19 10:00:21;;;;;;;;;;;;;;;;;;5072904;28;20065;-62
2023/01/19 10:02:46;;;;;;;;;;;;;;;;;;5073579;28;20005;-61
2023/01/19 10:05:11;;;;;;;;;;;;;;;;;;5071060;28;19963;-61
2023/01/19 10:07:36;;;;;;;;;;;;;;;;;;5070836;28;19921;-57
2023/01/19 10:10:02;;;;;;;;;;;;;;;;;;5072148;28;19912;-62
2023/01/19 10:12:27;;;;;;;;;;;;;;;;;;5089562;28;20326;-62
2023/01/19 10:14:52;;;;;;;;;;;;;;;;;;5074421;28;20311;-61
2023/01/19 10:17:17;;;;;;;;;;;;;;;;;;5074371;28;19923;-61
2023/01/19 10:19:42;;;;;;;;;;;;;;;;;;5086631;28;20011;-61
2023/01/19 10:22:07;;;;;;;;;;;;;;;;;;5073253;28;20319;-61
2023/01/19 10:24:32;;;;;;;;;;;;;;;;;;5055358;28;19958;-63
2023/01/19 10:26:57;;;;;;;;;;;;;;;;;;5071170;28;19917;-61
2023/01/19 10:29:22;;;;;;;;;;;;;;;;;;5073351;28;20288;-62
2023/01/19 10:31:48;;;;;;;;;;;;;;;;;;5071436;28;19952;-62
2023/01/19 10:34:17;;;;;;;;;;;;;;;;;;5072838;28;19908;-63
2023/01/19 10:36:42;;;;;;;;;;;;;;;;;;5068195;28;19913;-63
2023/01/19 10:39:07;;;;;;;;;;;;;;;;;;5065259;28;19928;-62
2023/01/19 10:41:32;;;;;;;;;;;;;;;;;;5065896;28;20354;-62
2023/01/19 10:43:57;;;;;;;;;;;;;;;;;;5055303;28;19908;-62
2023/01/19 10:46:22;;;;;;;;;;;;;;;;;;5059191;28;19927;-62
2023/01/19 10:48:47;;;;;;;;;;;;;;;;;;5052675;28;19913;-62
2023/01/19 10:51:13;;;;;;;;;;;;;;;;;;5056883;28;20327;-61
2023/01/19 10:53:38;;;;;;;;;;;;;;;;;;5072981;28;20277;-62
2023/01/19 10:56:03;;;;;;;;;;;;;;;;;;5072883;28;19944;-62
2023/01/19 10:58:28;;;;;;;;;;;;;;;;;;5070896;28;19913;-62
2023/01/19 11:00:53;;;;;;;;;;;;;;;;;;5071647;28;19936;-62
2023/01/19 11:03:18;;;;;;;;;;;;;;;;;;5072041;28;19966;-62
2023/01/19 11:05:43;;;;;;;;;;;;;;;;;;5072001;28;19962;-61
2023/01/19 11:08:09;;;;;;;;;;;;;;;;;;5068998;28;19920;-62
2023/01/19 11:10:34;;;;;;;;;;;;;;;;;;5076241;28;19917;-62
2023/01/19 11:13:02;;;;;;;;;;;;;;;;;;5070580;28;20339;-62
2023/01/19 11:15:27;;;;;;;;;;;;;;;;;;5072436;28;19912;-60
2023/01/19 11:17:52;;;;;;;;;;;;;;;;;;5084892;28;19908;-64
2023/01/19 11:20:17;;;;;;;;;;;;;;;;;;5074395;28;19916;-62
2023/01/19 11:22:42;;;;;;;;;;;;;;;;;;5071243;28;19912;-62
2023/01/19 11:25:07;;;;;;;;;;;;;;;;;;5055865;28;19909;-62
2023/01/19 11:27:33;;;;;;;;;;;;;;;;;;5092705;28;19939;-62
2023/01/19 11:29:58;;;;;;;;;;;;;;;;;;5081580;28;19908;-62
2023/01/19 11:32:25;;;;;;;;;;;;;;;;;;5070024;28;19943;-63
2023/01/19 11:34:50;;;;;;;;;;;;;;;;;;5071803;28;20356;-62
2023/01/19 11:37:16;;;;;;;;;;;;;;;;;;5069477;28;19942;-63
2023/01/19 11:39:41;;;;;;;;;;;;;;;;;;5060849;28;19928;-62
2023/01/19 11:42:07;;;;;;;;;;;;;;;;;;5049743;28;19923;-62
2023/01/19 11:44:32;;;;;;;;;;;;;;;;;;5072212;28;19963;-62
2023/01/19 11:46:57;;;;;;;;;;;;;;;;;;5053599;28;19935;-61
2023/01/19 11:49:22;;;;;;;;;;;;;;;;;;5064865;28;19972;-62
2023/01/19 11:51:47;;;;;;;;;;;;;;;;;;5069643;28;19957;-62
2023/01/19 11:54:12;;;;;;;;;;;;;;;;;;5070617;28;20023;-62
2023/01/19 11:56:37;;;;;;;;;;;;;;;;;;5070327;28;19913;-62
2023/01/19 11:59:03;;;;;;;;;;;;;;;;;;5070122;28;19919;-63
2023/01/19 12:01:28;;;;;;;;;;;;;;;;;;5068814;28;20042;-63
2023/01/19 12:03:54;;;;;;;;;;;;;;;;;;5071235;28;20387;-64
2023/01/19 12:06:19;;;;;;;;;;;;;;;;;;5049365;28;20385;-65
2023/01/19 12:08:44;;;;;;;;;;;;;;;;;;5078114;28;19919;-67
2023/01/19 12:11:09;;;;;;;;;;;;;;;;;;5070347;28;19923;-67
2023/01/19 12:13:34;;;;;;;;;;;;;;;;;;5073658;28;20423;-65
2023/01/19 12:15:59;;;;;;;;;;;;;;;;;;5069589;28;19913;-63
2023/01/19 12:18:24;;;;;;;;;;;;;;;;;;5061454;28;20323;-67
2023/01/19 12:20:50;;;;;;;;;;;;;;;;;;5073295;28;19945;-65
2023/01/19 12:23:15;;;;;;;;;;;;;;;;;;5072333;28;19924;-67
2023/01/19 12:25:41;;;;;;;;;;;;;;;;;;5071187;28;19991;-65
2023/01/19 12:28:06;;;;;;;;;;;;;;;;;;5069576;28;19916;-66
2023/01/19 12:30:31;;;;;;;;;;;;;;;;;;5072459;28;19917;-66
2023/01/19 12:32:56;;;;;;;;;;;;;;;;;;5070397;28;20003;-67
2023/01/19 12:35:21;;;;;;;;;;;;;;;;;;5072832;28;19995;-69
2023/01/19 12:37:46;;;;;;;;;;;;;;;;;;5067083;28;19923;-67
2023/01/19 12:40:12;;;;;;;;;;;;;;;;;;5062142;28;19924;-67
2023/01/19 12:42:37;;;;;;;;;;;;;;;;;;5072914;28;19917;-64
2023/01/19 12:45:02;;;;;;;;;;;;;;;;;;5070588;28;19913;-63
2023/01/19 12:47:27;;;;;;;;;;;;;;;;;;5058666;28;20023;-63
2023/01/19 12:49:52;;;;;;;;;;;;;;;;;;5062701;28;20380;-63
2023/01/19 12:52:18;;;;;;;;;;;;;;;;;;5067912;28;19913;-65
2023/01/19 12:54:43;;;;;;;;;;;;;;;;;;5072778;28;20026;-63
2023/01/19 12:57:08;;;;;;;;;;;;;;;;;;5069105;28;19947;-63
2023/01/19 12:59:33;;;;;;;;;;;;;;;;;;5071077;28;19921;-64
2023/01/19 13:01:58;;;;;;;;;;;;;;;;;;5067534;28;19908;-64
2023/01/19 13:04:24;;;;;;;;;;;;;;;;;;5055690;28;19952;-64
2023/01/19 13:06:49;;;;;;;;;;;;;;;;;;5072255;28;19932;-64
2023/01/19 13:09:14;;;;;;;;;;;;;;;;;;5064012;28;19912;-63
2023/01/19 13:11:39;;;;;;;;;;;;;;;;;;5068240;28;19912;-63
2023/01/19 13:14:04;;;;;;;;;;;;;;;;;;5061645;28;19919;-63
2023/01/19 13:16:29;;;;;;;;;;;;;;;;;;5065407;28;19916;-63
2023/01/19 13:18:54;;;;;;;;;;;;;;;;;;5042160;28;19916;-64
2023/01/19 13:21:20;;;;;;;;;;;;;;;;;;5053891;28;19916;-63
2023/01/19 13:23:45;;;;;;;;;;;;;;;;;;5057873;28;19931;-64
2023/01/19 13:26:10;;;;;;;;;;;;;;;;;;5069860;28;19923;-64
2023/01/19 13:28:35;;;;;;;;;;;;;;;;;;5068585;28;19962;-62
2023/01/19 13:31:01;;;;;;;;;;;;;;;;;;5072881;28;19909;-63
2023/01/19 13:33:26;;;;;;;;;;;;;;;;;;5073229;28;19912;-64
2023/01/19 13:35:52;;;;;;;;;;;;;;;;;;5071778;28;19915;-64
2023/01/19 13:38:17;;;;;;;;;;;;;;;;;;5069728;28;19913;-64
2023/01/19 13:40:43;;;;;;;;;;;;;;;;;;5076058;28;20304;-64
2023/01/19 13:43:08;;;;;;;;;;;;;;;;;;5062803;28;20334;-64
2023/01/19 13:45:33;;;;;;;;;;;;;;;;;;5069910;28;19917;-64
2023/01/19 13:47:58;;;;;;;;;;;;;;;;;;5068277;28;19955;-64
2023/01/19 13:50:24;;;;;;;;;;;;;;;;;;5055260;28;19913;-63
2023/01/19 13:52:50;;;;;;;;;;;;;;;;;;5053965;28;19912;-63
2023/01/19 13:55:15;;;;;;;;;;;;;;;;;;5069229;28;19982;-63
2023/01/19 13:57:40;;;;;;;;;;;;;;;;;;5064761;28;19924;-62
2023/01/19 14:00:06;;;;;;;;;;;;;;;;;;5070433;28;19916;-64
2023/01/19 14:02:31;;;;;;;;;;;;;;;;;;5068534;28;19912;-64
2023/01/19 14:04:56;;;;;;;;;;;;;;;;;;5069004;28;19916;-64
2023/01/19 14:07:25;;;;;;;;;;;;;;;;;;5073620;28;19916;-64
2023/01/19 14:09:50;;;;;;;;;;;;;;;;;;5069145;28;19966;-64
2023/01/19 14:12:16;;;;;;;;;;;;;;;;;;5071525;28;19912;-64
2023/01/19 14:14:41;;;;;;;;;;;;;;;;;;5073059;28;19919;-63
2023/01/19 14:17:06;;;;;;;;;;;;;;;;;;5072382;28;19913;-63
2023/01/19 14:19:31;;;;;;;;;;;;;;;;;;5070058;28;20020;-62
2023/01/19 14:21:56;;;;;;;;;;;;;;;;;;5058775;28;20568;-63
2023/01/19 14:24:22;;;;;;;;;;;;;;;;;;5071879;28;19912;-63
2023/01/19 14:26:47;;;;;;;;;;;;;;;;;;5055054;28;19916;-64
2023/01/19 14:29:13;;;;;;;;;;;;;;;;;;5071975;28;20007;-63
2023/01/19 14:31:38;;;;;;;;;;;;;;;;;;5068764;28;20012;-64
2023/01/19 14:34:03;;;;;;;;;;;;;;;;;;5072077;28;19959;-63
2023/01/19 14:36:28;;;;;;;;;;;;;;;;;;5068138;28;19951;-63
2023/01/19 14:38:53;;;;;;;;;;;;;;;;;;5073150;28;19912;-63
2023/01/19 14:41:18;;;;;;;;;;;;;;;;;;5067376;28;19923;-64
2023/01/19 14:43:44;;;;;;;;;;;;;;;;;;5069204;28;20003;-63
2023/01/19 14:46:11;;;;;;;;;;;;;;;;;;5071066;28;19962;-62
2023/01/19 14:48:36;;;;;;;;;;;;;;;;;;5071267;28;19916;-62
2023/01/19 14:51:02;;;;;;;;;;;;;;;;;;5062620;28;19912;-63
2023/01/19 14:53:28;;;;;;;;;;;;;;;;;;5070834;28;20007;-63
2023/01/19 14:55:54;;;;;;;;;;;;;;;;;;5072566;28;20391;-64
2023/01/19 14:58:19;;;;;;;;;;;;;;;;;;5071283;28;19908;-63
2023/01/19 15:00:44;;;;;;;;;;;;;;;;;;5068395;28;19916;-63
2023/01/19 15:03:09;;;;;;;;;;;;;;;;;;5069900;28;19912;-63
2023/01/19 15:05:34;;;;;;;;;;;;;;;;;;5070567;28;20296;-63
2023/01/19 15:08:00;;;;;;;;;;;;;;;;;;5055970;28;19912;-63
2023/01/19 15:10:25;;;;;;;;;;;;;;;;;;5070203;28;20271;-62
2023/01/19 15:12:50;;;;;;;;;;;;;;;;;;5064744;28;19916;-63
2023/01/19 15:15:15;;;;;;;;;;;;;;;;;;5057978;28;19912;-63
2023/01/19 15:17:40;;;;;;;;;;;;;;;;;;5074328;28;19984;-63
2023/01/19 15:20:05;;;;;;;;;;;;;;;;;;5067527;28;20039;-63
2023/01/19 15:22:30;;;;;;;;;;;;;;;;;;5053132;28;19924;-63
2023/01/19 15:24:58;;;;;;;;;;;;;;;;;;5072364;28;20272;-63
2023/01/19 15:27:23;;;;;;;;;;;;;;;;;;5071178;28;19920;-63
2023/01/19 15:29:49;;;;;;;;;;;;;;;;;;5077557;28;19912;-63
2023/01/19 15:32:14;;;;;;;;;;;;;;;;;;5068849;28;19940;-63
2023/01/19 15:34:39;;;;;;;;;;;;;;;;;;5070696;28;19966;-63
2023/01/19 15:37:04;;;;;;;;;;;;;;;;;;5068760;28;19918;-63
2023/01/19 15:39:29;;;;;;;;;;;;;;;;;;5071168;28;19963;-64
2023/01/19 15:41:54;;;;;;;;;;;;;;;;;;5068160;28;20402;-63
2023/01/19 15:44:19;;;;;;;;;;;;;;;;;;5069279;28;20003;-63
2023/01/19 15:46:45;;;;;;;;;;;;;;;;;;5084071;28;19956;-63
2023/01/19 15:49:10;;;;;;;;;;;;;;;;;;5084488;28;20345;-63
2023/01/19 15:51:35;;;;;;;;;;;;;;;;;;5075221;28;19935;-63
2023/01/19 15:54:00;;;;;;;;;;;;;;;;;;5073409;28;19912;-64
2023/01/19 15:56:25;;;;;;;;;;;;;;;;;;5069313;28;20037;-63
2023/01/19 15:58:50;;;;;;;;;;;;;;;;;;5073587;28;19957;-63
2023/01/19 16:01:16;;;;;;;;;;;;;;;;;;5073245;28;19916;-63
2023/01/19 16:03:41;;;;;;;;;;;;;;;;;;5073753;28;20395;-63
2023/01/19 16:06:06;;;;;;;;;;;;;;;;;;5063496;28;20139;-63
2023/01/19 16:08:31;;;;;;;;;;;;;;;;;;5066843;28;19965;-63
2023/01/19 16:10:56;;;;;;;;;;;;;;;;;;5072345;28;19913;-63
2023/01/19 16:13:21;;;;;;;;;;;;;;;;;;5069714;28;19916;-63
2023/01/19 16:15:46;;;;;;;;;;;;;;;;;;5072594;28;19912;-63
2023/01/19 16:18:12;;;;;;;;;;;;;;;;;;5067241;28;20379;-63
2023/01/19 16:20:37;;;;;;;;;;;;;;;;;;5074006;28;19917;-62
2023/01/19 16:23:02;;;;;;;;;;;;;;;;;;5072968;28;19912;-62
2023/01/19 16:25:27;;;;;;;;;;;;;;;;;;5075015;28;19924;-62
2023/01/19 16:27:52;;;;;;;;;;;;;;;;;;5071017;28;20047;-62
2023/01/19 16:30:18;;;;;;;;;;;;;;;;;;5070898;28;19999;-63
2023/01/19 16:32:43;;;;;;;;;;;;;;;;;;5072722;28;19919;-62
2023/01/19 16:35:08;;;;;;;;;;;;;;;;;;5070867;28;19958;-63
2023/01/19 16:37:33;;;;;;;;;;;;;;;;;;5071077;28;19925;-63
2023/01/19 16:39:58;;;;;;;;;;;;;;;;;;5069310;28;20039;-63
2023/01/19 16:42:23;;;;;;;;;;;;;;;;;;5063461;28;19913;-62
2023/01/19 16:44:49;;;;;;;;;;;;;;;;;;5066507;28;19924;-61